sensor_id;sensor_type;location;lat;lon;timestamp;P1;durP1;ratioP1;P2;durP2;ratioP2
38935;SDS011;66589;47.458;9.644;2023-06-22T03:18:07;15.45;;;4.45;;
38935;SDS011;66589;47.458;9.644;2023-06-22T03:20:33;8.32;;;3.42;;
38935;SDS011;66589;47.458;9.644;2023-06-22T03:22:59;10.13;;;3.88;;
38935;SDS011;66589;47.458;9.644;2023-06-22T03:25:25;13.10;;;4.03;;
38935;SDS011;66589;47.458;9.644;2023-06-22T03:27:50;12.77;;;3.95;;
38935;SDS011;66589;47.458;9.644;2023-06-22T03:30:16;14.02;;;4.07;;
38935;SDS011;66589;47.458;9.644;2023-06-22T03:32:42;13.25;;;4.60;;
38935;SDS011;66589;47.458;9.644;2023-06-22T03:35:08;10.13;;;4.40;;
38935;SDS011;66589;47.458;9.644;2023-06-22T03:37:38;12.10;;;4.00;;
38935;SDS011;66589;47.458;9.644;2023-06-22T03:40:03;11.77;;;4.20;;
38935;SDS011;66589;47.458;9.644;2023-06-22T03:42:35;13.93;;;4.35;;
38935;SDS011;66589;47.458;9.644;2023-06-22T03:45:01;11.80;;;4.25;;
38935;SDS011;66589;47.458;9.644;2023-06-22T03:47:28;9.32;;;3.65;;
38935;SDS011;66589;47.458;9.644;2023-06-22T03:49:54;15.18;;;4.47;;
38935;SDS011;66589;47.458;9.644;2023-06-22T03:52:21;10.77;;;4.22;;
38935;SDS011;66589;47.458;9.644;2023-06-22T03:54:47;11.63;;;4.22;;
38935;SDS011;66589;47.458;9.644;2023-06-22T03:57:13;13.13;;;4.25;;
38935;SDS011;66589;47.458;9.644;2023-06-22T03:59:38;14.63;;;4.22;;
38935;SDS011;66589;47.458;9.644;2023-06-22T04:02:04;11.35;;;3.35;;
38935;SDS011;66589;47.458;9.644;2023-06-22T04:04:30;13.43;;;4.53;;
38935;SDS011;66589;47.458;9.644;2023-06-22T04:06:55;9.77;;;3.50;;
38935;SDS011;66589;47.458;9.644;2023-06-22T04:09:21;10.02;;;4.32;;
38935;SDS011;66589;47.458;9.644;2023-06-22T04:11:47;13.05;;;4.60;;
38935;SDS011;66589;47.458;9.644;2023-06-22T04:14:13;12.13;;;4.28;;
38935;SDS011;66589;47.458;9.644;2023-06-22T04:16:38;13.32;;;4.35;;
38935;SDS011;66589;47.458;9.644;2023-06-22T04:19:04;8.68;;;3.65;;
38935;SDS011;66589;47.458;9.644;2023-06-22T04:21:30;10.70;;;3.55;;
38935;SDS011;66589;47.458;9.644;2023-06-22T04:23:55;11.35;;;3.45;;
38935;SDS011;66589;47.458;9.644;2023-06-22T04:26:21;15.20;;;4.07;;
38935;SDS011;66589;47.458;9.644;2023-06-22T04:28:47;8.05;;;4.00;;
38935;SDS011;66589;47.458;9.644;2023-06-22T04:31:20;12.20;;;3.72;;
38935;SDS011;66589;47.458;9.644;2023-06-22T04:33:46;10.73;;;3.47;;
38935;SDS011;66589;47.458;9.644;2023-06-22T04:36:12;13.43;;;3.90;;
38935;SDS011;66589;47.458;9.644;2023-06-22T04:38:38;11.57;;;3.35;;
38935;SDS011;66589;47.458;9.644;2023-06-22T04:41:04;12.50;;;4.10;;
38935;SDS011;66589;47.458;9.644;2023-06-22T04:43:31;10.85;;;4.10;;
38935;SDS011;66589;47.458;9.644;2023-06-22T04:45:58;12.43;;;4.07;;
38935;SDS011;66589;47.458;9.644;2023-06-22T04:48:28;13.45;;;4.82;;
38935;SDS011;66589;47.458;9.644;2023-06-22T04:50:58;10.93;;;4.18;;
38935;SDS011;66589;47.458;9.644;2023-06-22T04:53:28;12.18;;;4.35;;
38935;SDS011;66589;47.458;9.644;2023-06-22T04:55:54;14.35;;;4.30;;
38935;SDS011;66589;47.458;9.644;2023-06-22T04:58:20;11.85;;;4.20;;
38935;SDS011;66589;47.458;9.644;2023-06-22T05:00:46;8.77;;;3.72;;
38935;SDS011;66589;47.458;9.644;2023-06-22T05:03:12;12.90;;;4.55;;
38935;SDS011;66589;47.458;9.644;2023-06-22T05:05:38;14.32;;;4.68;;
38935;SDS011;66589;47.458;9.644;2023-06-22T05:08:04;13.95;;;4.35;;
38935;SDS011;66589;47.458;9.644;2023-06-22T05:10:31;12.65;;;4.63;;
38935;SDS011;66589;47.458;9.644;2023-06-22T05:12:58;16.35;;;4.63;;
38935;SDS011;66589;47.458;9.644;2023-06-22T05:15:23;15.15;;;4.30;;
38935;SDS011;66589;47.458;9.644;2023-06-22T05:17:53;12.48;;;5.07;;
38935;SDS011;66589;47.458;9.644;2023-06-22T05:20:18;10.70;;;3.97;;
38935;SDS011;66589;47.458;9.644;2023-06-22T05:22:44;13.38;;;4.53;;
38935;SDS011;66589;47.458;9.644;2023-06-22T05:25:10;9.93;;;4.72;;
38935;SDS011;66589;47.458;9.644;2023-06-22T05:27:37;9.95;;;3.85;;
38935;SDS011;66589;47.458;9.644;2023-06-22T05:30:06;10.48;;;4.60;;
38935;SDS011;66589;47.458;9.644;2023-06-22T05:32:33;11.60;;;4.80;;
38935;SDS011;66589;47.458;9.644;2023-06-22T05:34:58;16.85;;;4.72;;
38935;SDS011;66589;47.458;9.644;2023-06-22T05:37:25;10.43;;;4.72;;
38935;SDS011;66589;47.458;9.644;2023-06-22T05:39:51;13.32;;;6.15;;
38935;SDS011;66589;47.458;9.644;2023-06-22T05:42:17;11.20;;;5.00;;
38935;SDS011;66589;47.458;9.644;2023-06-22T05:44:42;8.40;;;4.85;;
38935;SDS011;66589;47.458;9.644;2023-06-22T05:47:08;14.23;;;4.85;;
38935;SDS011;66589;47.458;9.644;2023-06-22T05:49:34;11.80;;;5.72;;
38935;SDS011;66589;47.458;9.644;2023-06-22T05:51:59;14.63;;;5.75;;
38935;SDS011;66589;47.458;9.644;2023-06-22T05:54:27;9.82;;;5.55;;
38935;SDS011;66589;47.458;9.644;2023-06-22T05:56:53;13.82;;;6.18;;
38935;SDS011;66589;47.458;9.644;2023-06-22T05:59:18;12.65;;;5.55;;
38935;SDS011;66589;47.458;9.644;2023-06-22T06:01:44;23.52;;;6.03;;
38935;SDS011;66589;47.458;9.644;2023-06-22T06:04:11;10.77;;;6.45;;
38935;SDS011;66589;47.458;9.644;2023-06-22T06:06:37;9.35;;;6.32;;
38935;SDS011;66589;47.458;9.644;2023-06-22T06:09:03;12.98;;;6.68;;
38935;SDS011;66589;47.458;9.644;2023-06-22T06:11:29;12.13;;;5.72;;
38935;SDS011;66589;47.458;9.644;2023-06-22T06:13:55;10.65;;;5.82;;
38935;SDS011;66589;47.458;9.644;2023-06-22T06:16:21;18.63;;;7.07;;
38935;SDS011;66589;47.458;9.644;2023-06-22T06:18:47;13.23;;;6.43;;
38935;SDS011;66589;47.458;9.644;2023-06-22T06:21:18;12.18;;;5.90;;
38935;SDS011;66589;47.458;9.644;2023-06-22T06:23:44;15.40;;;6.20;;
38935;SDS011;66589;47.458;9.644;2023-06-22T06:26:09;16.77;;;6.72;;
38935;SDS011;66589;47.458;9.644;2023-06-22T06:28:35;15.95;;;6.25;;
38935;SDS011;66589;47.458;9.644;2023-06-22T06:31:01;12.98;;;6.22;;
38935;SDS011;66589;47.458;9.644;2023-06-22T06:33:26;15.50;;;6.53;;
38935;SDS011;66589;47.458;9.644;2023-06-22T06:35:52;12.32;;;5.63;;
38935;SDS011;66589;47.458;9.644;2023-06-22T06:38:18;12.50;;;7.13;;
38935;SDS011;66589;47.458;9.644;2023-06-22T06:40:43;12.75;;;6.18;;
38935;SDS011;66589;47.458;9.644;2023-06-22T06:43:10;11.07;;;6.75;;
38935;SDS011;66589;47.458;9.644;2023-06-22T06:45:35;12.18;;;6.72;;
38935;SDS011;66589;47.458;9.644;2023-06-22T06:48:01;13.95;;;7.20;;
38935;SDS011;66589;47.458;9.644;2023-06-22T06:50:27;14.43;;;8.02;;
38935;SDS011;66589;47.458;9.644;2023-06-22T06:52:53;13.35;;;7.15;;
38935;SDS011;66589;47.458;9.644;2023-06-22T06:55:19;12.02;;;7.55;;
38935;SDS011;66589;47.458;9.644;2023-06-22T06:57:45;11.52;;;6.22;;
38935;SDS011;66589;47.458;9.644;2023-06-22T07:00:13;11.98;;;7.80;;
38935;SDS011;66589;47.458;9.644;2023-06-22T07:02:40;15.85;;;8.18;;
38935;SDS011;66589;47.458;9.644;2023-06-22T07:05:07;13.60;;;7.72;;
38935;SDS011;66589;47.458;9.644;2023-06-22T07:07:34;16.25;;;7.95;;
38935;SDS011;66589;47.458;9.644;2023-06-22T07:10:00;14.55;;;6.07;;
38935;SDS011;66589;47.458;9.644;2023-06-22T07:12:26;13.45;;;7.63;;
38935;SDS011;66589;47.458;9.644;2023-06-22T07:14:52;14.65;;;9.02;;
38935;SDS011;66589;47.458;9.644;2023-06-22T07:17:18;16.95;;;8.65;;
38935;SDS011;66589;47.458;9.644;2023-06-22T07:19:44;16.40;;;8.32;;
38935;SDS011;66589;47.458;9.644;2023-06-22T07:22:10;12.85;;;7.63;;
38935;SDS011;66589;47.458;9.644;2023-06-22T07:24:36;13.50;;;7.53;;
38935;SDS011;66589;47.458;9.644;2023-06-22T07:27:02;12.77;;;7.55;;
38935;SDS011;66589;47.458;9.644;2023-06-22T07:29:28;14.93;;;8.30;;
38935;SDS011;66589;47.458;9.644;2023-06-22T07:31:54;12.23;;;6.07;;
38935;SDS011;66589;47.458;9.644;2023-06-22T07:34:21;14.00;;;7.78;;
38935;SDS011;66589;47.458;9.644;2023-06-22T07:36:47;12.50;;;6.65;;
38935;SDS011;66589;47.458;9.644;2023-06-22T07:39:13;12.13;;;8.07;;
38935;SDS011;66589;47.458;9.644;2023-06-22T07:41:40;14.57;;;8.45;;
38935;SDS011;66589;47.458;9.644;2023-06-22T07:44:08;14.65;;;8.02;;
38935;SDS011;66589;47.458;9.644;2023-06-22T07:46:34;17.85;;;8.68;;
38935;SDS011;66589;47.458;9.644;2023-06-22T07:49:00;16.88;;;8.40;;
38935;SDS011;66589;47.458;9.644;2023-06-22T07:51:26;13.35;;;7.22;;
38935;SDS011;66589;47.458;9.644;2023-06-22T07:53:52;12.07;;;8.25;;
38935;SDS011;66589;47.458;9.644;2023-06-22T07:56:18;15.88;;;9.45;;
38935;SDS011;66589;47.458;9.644;2023-06-22T07:58:45;15.20;;;9.48;;
38935;SDS011;66589;47.458;9.644;2023-06-22T08:01:12;12.20;;;9.70;;
38935;SDS011;66589;47.458;9.644;2023-06-22T08:03:38;15.32;;;10.23;;
38935;SDS011;66589;47.458;9.644;2023-06-22T08:06:04;14.43;;;10.35;;
38935;SDS011;66589;47.458;9.644;2023-06-22T08:08:31;14.25;;;9.52;;
38935;SDS011;66589;47.458;9.644;2023-06-22T08:10:57;17.13;;;9.65;;
38935;SDS011;66589;47.458;9.644;2023-06-22T08:13:22;14.93;;;9.63;;
38935;SDS011;66589;47.458;9.644;2023-06-22T08:15:48;11.57;;;7.50;;
38935;SDS011;66589;47.458;9.644;2023-06-22T08:18:14;16.50;;;10.48;;
38935;SDS011;66589;47.458;9.644;2023-06-22T08:20:43;12.48;;;9.73;;
38935;SDS011;66589;47.458;9.644;2023-06-22T08:23:09;14.68;;;8.75;;
38935;SDS011;66589;47.458;9.644;2023-06-22T08:25:35;14.57;;;8.15;;
38935;SDS011;66589;47.458;9.644;2023-06-22T08:28:01;15.40;;;7.95;;
38935;SDS011;66589;47.458;9.644;2023-06-22T08:30:29;11.23;;;7.32;;
38935;SDS011;66589;47.458;9.644;2023-06-22T08:32:55;12.52;;;7.13;;
38935;SDS011;66589;47.458;9.644;2023-06-22T08:35:22;15.80;;;7.07;;
38935;SDS011;66589;47.458;9.644;2023-06-22T08:37:48;16.38;;;6.65;;
38935;SDS011;66589;47.458;9.644;2023-06-22T08:40:20;14.98;;;7.07;;
38935;SDS011;66589;47.458;9.644;2023-06-22T08:42:47;9.88;;;6.45;;
38935;SDS011;66589;47.458;9.644;2023-06-22T08:45:14;18.05;;;6.60;;
38935;SDS011;66589;47.458;9.644;2023-06-22T08:47:41;14.32;;;6.25;;
38935;SDS011;66589;47.458;9.644;2023-06-22T08:50:08;13.68;;;6.80;;
38935;SDS011;66589;47.458;9.644;2023-06-22T08:52:35;15.18;;;6.55;;
38935;SDS011;66589;47.458;9.644;2023-06-22T08:55:02;15.55;;;5.43;;
38935;SDS011;66589;47.458;9.644;2023-06-22T08:57:29;13.50;;;5.40;;
38935;SDS011;66589;47.458;9.644;2023-06-22T08:59:55;14.45;;;6.28;;
38935;SDS011;66589;47.458;9.644;2023-06-22T09:02:24;15.98;;;6.13;;
38935;SDS011;66589;47.458;9.644;2023-06-22T09:04:56;14.98;;;6.93;;
38935;SDS011;66589;47.458;9.644;2023-06-22T09:07:23;17.27;;;6.38;;
38935;SDS011;66589;47.458;9.644;2023-06-22T09:09:51;18.67;;;7.28;;
38935;SDS011;66589;47.458;9.644;2023-06-22T09:12:17;13.57;;;5.90;;
38935;SDS011;66589;47.458;9.644;2023-06-22T09:14:51;11.57;;;6.60;;
38935;SDS011;66589;47.458;9.644;2023-06-22T09:17:17;18.02;;;5.43;;
38935;SDS011;66589;47.458;9.644;2023-06-22T09:19:43;14.95;;;6.78;;
38935;SDS011;66589;47.458;9.644;2023-06-22T09:22:08;15.27;;;5.55;;
38935;SDS011;66589;47.458;9.644;2023-06-22T09:24:35;12.30;;;7.00;;
38935;SDS011;66589;47.458;9.644;2023-06-22T09:27:01;16.33;;;7.18;;
38935;SDS011;66589;47.458;9.644;2023-06-22T09:29:28;15.35;;;6.85;;
38935;SDS011;66589;47.458;9.644;2023-06-22T09:31:54;14.82;;;7.05;;
38935;SDS011;66589;47.458;9.644;2023-06-22T09:34:22;14.07;;;7.70;;
38935;SDS011;66589;47.458;9.644;2023-06-22T09:36:48;17.25;;;6.72;;
38935;SDS011;66589;47.458;9.644;2023-06-22T09:39:14;12.88;;;7.15;;
38935;SDS011;66589;47.458;9.644;2023-06-22T09:41:41;17.92;;;9.10;;
38935;SDS011;66589;47.458;9.644;2023-06-22T09:44:06;12.52;;;7.82;;
38935;SDS011;66589;47.458;9.644;2023-06-22T09:46:32;15.43;;;7.50;;
38935;SDS011;66589;47.458;9.644;2023-06-22T09:48:58;13.30;;;7.13;;
38935;SDS011;66589;47.458;9.644;2023-06-22T09:51:24;16.73;;;6.05;;
38935;SDS011;66589;47.458;9.644;2023-06-22T09:53:50;13.45;;;7.70;;
38935;SDS011;66589;47.458;9.644;2023-06-22T09:56:18;14.15;;;7.65;;
38935;SDS011;66589;47.458;9.644;2023-06-22T09:58:45;16.42;;;8.60;;
38935;SDS011;66589;47.458;9.644;2023-06-22T10:01:12;17.05;;;8.02;;
38935;SDS011;66589;47.458;9.644;2023-06-22T10:03:41;15.48;;;8.23;;
38935;SDS011;66589;47.458;9.644;2023-06-22T10:06:07;17.73;;;8.20;;
38935;SDS011;66589;47.458;9.644;2023-06-22T10:08:37;16.48;;;9.00;;
38935;SDS011;66589;47.458;9.644;2023-06-22T10:11:04;13.68;;;7.88;;
38935;SDS011;66589;47.458;9.644;2023-06-22T10:13:30;14.95;;;7.20;;
38935;SDS011;66589;47.458;9.644;2023-06-22T10:15:55;18.00;;;9.40;;
38935;SDS011;66589;47.458;9.644;2023-06-22T10:18:21;18.63;;;8.25;;
38935;SDS011;66589;47.458;9.644;2023-06-22T10:20:47;16.85;;;8.32;;
38935;SDS011;66589;47.458;9.644;2023-06-22T10:23:18;25.60;;;9.63;;
38935;SDS011;66589;47.458;9.644;2023-06-22T10:25:44;14.98;;;6.93;;
38935;SDS011;66589;47.458;9.644;2023-06-22T10:28:10;14.30;;;7.95;;
38935;SDS011;66589;47.458;9.644;2023-06-22T10:30:37;17.83;;;7.75;;
38935;SDS011;66589;47.458;9.644;2023-06-22T10:33:09;15.73;;;8.32;;
38935;SDS011;66589;47.458;9.644;2023-06-22T10:35:37;15.05;;;7.68;;
38935;SDS011;66589;47.458;9.644;2023-06-22T10:38:03;15.18;;;8.10;;
38935;SDS011;66589;47.458;9.644;2023-06-22T10:40:29;23.33;;;8.00;;
38935;SDS011;66589;47.458;9.644;2023-06-22T10:42:58;14.40;;;6.88;;
38935;SDS011;66589;47.458;9.644;2023-06-22T10:45:24;14.93;;;7.32;;
38935;SDS011;66589;47.458;9.644;2023-06-22T10:47:52;19.48;;;8.75;;
38935;SDS011;66589;47.458;9.644;2023-06-22T10:50:18;14.75;;;8.32;;
38935;SDS011;66589;47.458;9.644;2023-06-22T10:52:45;16.38;;;8.40;;
38935;SDS011;66589;47.458;9.644;2023-06-22T10:55:11;17.50;;;9.43;;
38935;SDS011;66589;47.458;9.644;2023-06-22T10:57:37;16.80;;;9.25;;
38935;SDS011;66589;47.458;9.644;2023-06-22T11:00:07;16.67;;;8.60;;
38935;SDS011;66589;47.458;9.644;2023-06-22T11:02:33;20.65;;;8.23;;
38935;SDS011;66589;47.458;9.644;2023-06-22T11:04:59;20.00;;;8.68;;
38935;SDS011;66589;47.458;9.644;2023-06-22T11:07:25;15.35;;;8.30;;
38935;SDS011;66589;47.458;9.644;2023-06-22T11:09:53;15.57;;;7.97;;
38935;SDS011;66589;47.458;9.644;2023-06-22T11:12:19;20.85;;;9.95;;
38935;SDS011;66589;47.458;9.644;2023-06-22T11:14:45;17.73;;;9.73;;
38935;SDS011;66589;47.458;9.644;2023-06-22T11:17:10;16.92;;;8.35;;
38935;SDS011;66589;47.458;9.644;2023-06-22T11:19:36;18.00;;;9.30;;
38935;SDS011;66589;47.458;9.644;2023-06-22T11:22:02;15.90;;;8.63;;
38935;SDS011;66589;47.458;9.644;2023-06-22T11:24:28;13.40;;;7.13;;
38935;SDS011;66589;47.458;9.644;2023-06-22T11:26:53;16.77;;;8.15;;
38935;SDS011;66589;47.458;9.644;2023-06-22T11:29:19;18.08;;;7.43;;
38935;SDS011;66589;47.458;9.644;2023-06-22T11:31:45;19.38;;;8.45;;
38935;SDS011;66589;47.458;9.644;2023-06-22T11:34:10;18.75;;;8.68;;
38935;SDS011;66589;47.458;9.644;2023-06-22T11:36:36;17.27;;;7.75;;
38935;SDS011;66589;47.458;9.644;2023-06-22T11:39:02;16.63;;;8.70;;
38935;SDS011;66589;47.458;9.644;2023-06-22T11:41:27;15.15;;;8.38;;
38935;SDS011;66589;47.458;9.644;2023-06-22T11:43:53;16.98;;;8.38;;
38935;SDS011;66589;47.458;9.644;2023-06-22T11:46:19;16.00;;;7.20;;
38935;SDS011;66589;47.458;9.644;2023-06-22T11:48:44;15.45;;;7.25;;
38935;SDS011;66589;47.458;9.644;2023-06-22T11:51:10;15.80;;;6.90;;
38935;SDS011;66589;47.458;9.644;2023-06-22T11:53:36;24.42;;;7.43;;
38935;SDS011;66589;47.458;9.644;2023-06-22T11:56:02;15.23;;;6.53;;
38935;SDS011;66589;47.458;9.644;2023-06-22T11:58:27;14.15;;;6.80;;
38935;SDS011;66589;47.458;9.644;2023-06-22T12:00:53;14.45;;;6.20;;
38935;SDS011;66589;47.458;9.644;2023-06-22T12:03:19;16.70;;;6.13;;
38935;SDS011;66589;47.458;9.644;2023-06-22T12:05:46;15.63;;;6.18;;
38935;SDS011;66589;47.458;9.644;2023-06-22T12:08:12;12.98;;;5.68;;
38935;SDS011;66589;47.458;9.644;2023-06-22T12:10:38;19.58;;;6.78;;
38935;SDS011;66589;47.458;9.644;2023-06-22T12:13:04;21.30;;;6.90;;
38935;SDS011;66589;47.458;9.644;2023-06-22T12:15:30;15.57;;;6.38;;
38935;SDS011;66589;47.458;9.644;2023-06-22T12:17:56;18.48;;;6.55;;
38935;SDS011;66589;47.458;9.644;2023-06-22T12:20:21;21.60;;;5.90;;
38935;SDS011;66589;47.458;9.644;2023-06-22T12:22:47;20.80;;;6.25;;
38935;SDS011;66589;47.458;9.644;2023-06-22T12:25:13;19.90;;;6.03;;
38935;SDS011;66589;47.458;9.644;2023-06-22T12:27:38;20.65;;;5.72;;
38935;SDS011;66589;47.458;9.644;2023-06-22T12:30:04;13.55;;;5.88;;
38935;SDS011;66589;47.458;9.644;2023-06-22T12:32:30;15.38;;;6.00;;
38935;SDS011;66589;47.458;9.644;2023-06-22T12:34:56;16.80;;;6.30;;
38935;SDS011;66589;47.458;9.644;2023-06-22T12:37:22;20.30;;;5.53;;
38935;SDS011;66589;47.458;9.644;2023-06-22T12:39:48;16.88;;;6.60;;
38935;SDS011;66589;47.458;9.644;2023-06-22T12:42:14;20.52;;;6.20;;
38935;SDS011;66589;47.458;9.644;2023-06-22T12:44:41;19.20;;;6.03;;
38935;SDS011;66589;47.458;9.644;2023-06-22T12:47:07;18.85;;;5.88;;
38935;SDS011;66589;47.458;9.644;2023-06-22T12:49:33;12.48;;;5.80;;
38935;SDS011;66589;47.458;9.644;2023-06-22T12:52:00;14.85;;;5.53;;
38935;SDS011;66589;47.458;9.644;2023-06-22T12:54:26;18.65;;;5.90;;
38935;SDS011;66589;47.458;9.644;2023-06-22T12:56:53;15.70;;;5.60;;
38935;SDS011;66589;47.458;9.644;2023-06-22T12:59:19;10.30;;;5.07;;
38935;SDS011;66589;47.458;9.644;2023-06-22T13:01:44;24.35;;;6.07;;
38935;SDS011;66589;47.458;9.644;2023-06-22T13:04:11;12.95;;;4.75;;
38935;SDS011;66589;47.458;9.644;2023-06-22T13:06:39;15.88;;;4.97;;
38935;SDS011;66589;47.458;9.644;2023-06-22T13:09:06;15.45;;;5.30;;
38935;SDS011;66589;47.458;9.644;2023-06-22T13:11:31;13.30;;;6.07;;
38935;SDS011;66589;47.458;9.644;2023-06-22T13:13:57;17.27;;;5.25;;
38935;SDS011;66589;47.458;9.644;2023-06-22T13:16:23;20.30;;;5.78;;
38935;SDS011;66589;47.458;9.644;2023-06-22T13:18:49;20.48;;;5.00;;
38935;SDS011;66589;47.458;9.644;2023-06-22T13:21:14;16.98;;;5.32;;
38935;SDS011;66589;47.458;9.644;2023-06-22T13:23:40;11.73;;;5.47;;
38935;SDS011;66589;47.458;9.644;2023-06-22T13:26:05;15.18;;;6.07;;
38935;SDS011;66589;47.458;9.644;2023-06-22T13:28:32;17.52;;;7.10;;
38935;SDS011;66589;47.458;9.644;2023-06-22T13:30:57;17.48;;;8.05;;
38935;SDS011;66589;47.458;9.644;2023-06-22T13:33:23;18.35;;;7.65;;
38935;SDS011;66589;47.458;9.644;2023-06-22T13:35:49;18.52;;;8.07;;
38935;SDS011;66589;47.458;9.644;2023-06-22T13:38:14;22.42;;;7.07;;
38935;SDS011;66589;47.458;9.644;2023-06-22T13:40:40;20.90;;;7.00;;
38935;SDS011;66589;47.458;9.644;2023-06-22T13:43:06;21.00;;;7.47;;
38935;SDS011;66589;47.458;9.644;2023-06-22T13:45:32;18.40;;;7.40;;
38935;SDS011;66589;47.458;9.644;2023-06-22T13:47:57;17.95;;;6.65;;
38935;SDS011;66589;47.458;9.644;2023-06-22T13:50:23;17.77;;;8.57;;
38935;SDS011;66589;47.458;9.644;2023-06-22T13:52:49;17.17;;;7.00;;
38935;SDS011;66589;47.458;9.644;2023-06-22T13:55:15;20.65;;;6.00;;
38935;SDS011;66589;47.458;9.644;2023-06-22T13:57:40;15.75;;;6.25;;
38935;SDS011;66589;47.458;9.644;2023-06-22T14:00:07;15.57;;;4.85;;
38935;SDS011;66589;47.458;9.644;2023-06-22T14:02:33;13.77;;;5.75;;
38935;SDS011;66589;47.458;9.644;2023-06-22T14:04:59;20.60;;;6.63;;
38935;SDS011;66589;47.458;9.644;2023-06-22T14:07:25;18.10;;;5.82;;
38935;SDS011;66589;47.458;9.644;2023-06-22T14:09:51;13.85;;;5.85;;
38935;SDS011;66589;47.458;9.644;2023-06-22T14:12:17;11.70;;;5.05;;
38935;SDS011;66589;47.458;9.644;2023-06-22T14:14:43;16.92;;;6.28;;
38935;SDS011;66589;47.458;9.644;2023-06-22T14:17:09;12.68;;;5.63;;
38935;SDS011;66589;47.458;9.644;2023-06-22T14:19:35;11.00;;;5.95;;
38935;SDS011;66589;47.458;9.644;2023-06-22T14:22:01;14.30;;;6.05;;
38935;SDS011;66589;47.458;9.644;2023-06-22T14:24:27;18.92;;;5.57;;
38935;SDS011;66589;47.458;9.644;2023-06-22T14:26:53;13.02;;;4.82;;
38935;SDS011;66589;47.458;9.644;2023-06-22T14:29:19;17.25;;;6.13;;
38935;SDS011;66589;47.458;9.644;2023-06-22T14:31:45;21.08;;;6.13;;
38935;SDS011;66589;47.458;9.644;2023-06-22T14:34:11;17.40;;;6.75;;
38935;SDS011;66589;47.458;9.644;2023-06-22T14:36:37;11.02;;;5.43;;
38935;SDS011;66589;47.458;9.644;2023-06-22T14:39:03;14.18;;;6.05;;
38935;SDS011;66589;47.458;9.644;2023-06-22T14:41:29;12.77;;;4.30;;
38935;SDS011;66589;47.458;9.644;2023-06-22T14:43:55;17.35;;;5.55;;
38935;SDS011;66589;47.458;9.644;2023-06-22T14:46:21;16.83;;;5.57;;
38935;SDS011;66589;47.458;9.644;2023-06-22T14:48:47;19.13;;;5.85;;
38935;SDS011;66589;47.458;9.644;2023-06-22T14:51:12;16.70;;;5.57;;
38935;SDS011;66589;47.458;9.644;2023-06-22T14:53:38;16.70;;;5.28;;
38935;SDS011;66589;47.458;9.644;2023-06-22T14:56:04;19.10;;;5.47;;
38935;SDS011;66589;47.458;9.644;2023-06-22T14:58:30;16.45;;;6.47;;
38935;SDS011;66589;47.458;9.644;2023-06-22T15:01:01;13.50;;;5.35;;
38935;SDS011;66589;47.458;9.644;2023-06-22T15:03:30;16.45;;;6.35;;
38935;SDS011;66589;47.458;9.644;2023-06-22T15:05:57;13.20;;;4.88;;
38935;SDS011;66589;47.458;9.644;2023-06-22T15:08:23;20.98;;;7.30;;
38935;SDS011;66589;47.458;9.644;2023-06-22T15:10:51;21.33;;;5.97;;
38935;SDS011;66589;47.458;9.644;2023-06-22T15:13:17;17.63;;;5.43;;
38935;SDS011;66589;47.458;9.644;2023-06-22T15:15:43;15.93;;;7.07;;
38935;SDS011;66589;47.458;9.644;2023-06-22T15:18:10;16.65;;;6.10;;
38935;SDS011;66589;47.458;9.644;2023-06-22T15:20:36;22.83;;;6.53;;
38935;SDS011;66589;47.458;9.644;2023-06-22T15:23:02;18.63;;;6.25;;
38935;SDS011;66589;47.458;9.644;2023-06-22T15:25:27;21.45;;;6.45;;
38935;SDS011;66589;47.458;9.644;2023-06-22T15:27:53;19.83;;;6.70;;
38935;SDS011;66589;47.458;9.644;2023-06-22T15:30:20;17.25;;;7.20;;
38935;SDS011;66589;47.458;9.644;2023-06-22T15:32:45;14.60;;;6.55;;
38935;SDS011;66589;47.458;9.644;2023-06-22T15:35:12;23.92;;;7.35;;
38935;SDS011;66589;47.458;9.644;2023-06-22T15:37:39;21.08;;;8.05;;
38935;SDS011;66589;47.458;9.644;2023-06-22T15:40:05;21.27;;;8.15;;
38935;SDS011;66589;47.458;9.644;2023-06-22T15:42:31;14.55;;;5.88;;
38935;SDS011;66589;47.458;9.644;2023-06-22T15:44:57;19.73;;;5.45;;
38935;SDS011;66589;47.458;9.644;2023-06-22T15:47:23;15.50;;;6.63;;
38935;SDS011;66589;47.458;9.644;2023-06-22T15:49:49;20.40;;;5.15;;
38935;SDS011;66589;47.458;9.644;2023-06-22T15:52:15;18.25;;;6.95;;
38935;SDS011;66589;47.458;9.644;2023-06-22T15:54:43;15.15;;;5.80;;
38935;SDS011;66589;47.458;9.644;2023-06-22T15:57:12;17.15;;;7.15;;
38935;SDS011;66589;47.458;9.644;2023-06-22T15:59:41;18.35;;;6.78;;
38935;SDS011;66589;47.458;9.644;2023-06-22T16:02:07;14.90;;;7.65;;
38935;SDS011;66589;47.458;9.644;2023-06-22T16:04:34;17.38;;;6.57;;
38935;SDS011;66589;47.458;9.644;2023-06-22T16:07:00;21.73;;;7.35;;
38935;SDS011;66589;47.458;9.644;2023-06-22T16:09:27;16.90;;;6.55;;
38935;SDS011;66589;47.458;9.644;2023-06-22T16:11:55;14.95;;;6.28;;
38935;SDS011;66589;47.458;9.644;2023-06-22T16:14:21;13.80;;;6.10;;
38935;SDS011;66589;47.458;9.644;2023-06-22T16:16:47;13.23;;;6.80;;
38935;SDS011;66589;47.458;9.644;2023-06-22T16:19:13;20.42;;;5.85;;
38935;SDS011;66589;47.458;9.644;2023-06-22T16:21:39;24.25;;;5.95;;
38935;SDS011;66589;47.458;9.644;2023-06-22T16:24:04;12.68;;;5.35;;
38935;SDS011;66589;47.458;9.644;2023-06-22T16:26:36;14.27;;;5.45;;
38935;SDS011;66589;47.458;9.644;2023-06-22T16:29:04;18.10;;;5.47;;
38935;SDS011;66589;47.458;9.644;2023-06-22T16:31:29;20.35;;;5.50;;
38935;SDS011;66589;47.458;9.644;2023-06-22T16:33:55;16.10;;;5.25;;
38935;SDS011;66589;47.458;9.644;2023-06-22T16:36:21;17.55;;;5.07;;
38935;SDS011;66589;47.458;9.644;2023-06-22T16:38:46;18.67;;;5.47;;
38935;SDS011;66589;47.458;9.644;2023-06-22T16:41:12;14.25;;;5.13;;
38935;SDS011;66589;47.458;9.644;2023-06-22T16:43:38;13.07;;;4.82;;
38935;SDS011;66589;47.458;9.644;2023-06-22T16:46:05;16.63;;;4.93;;
38935;SDS011;66589;47.458;9.644;2023-06-22T16:48:30;19.55;;;4.70;;
38935;SDS011;66589;47.458;9.644;2023-06-22T16:50:56;16.10;;;4.80;;
38935;SDS011;66589;47.458;9.644;2023-06-22T16:53:22;12.40;;;4.85;;
38935;SDS011;66589;47.458;9.644;2023-06-22T16:55:49;13.43;;;4.40;;
38935;SDS011;66589;47.458;9.644;2023-06-22T16:58:15;13.98;;;4.65;;
38935;SDS011;66589;47.458;9.644;2023-06-22T17:00:46;16.35;;;5.05;;
38935;SDS011;66589;47.458;9.644;2023-06-22T17:03:14;11.95;;;4.32;;
38935;SDS011;66589;47.458;9.644;2023-06-22T17:05:57;13.68;;;4.55;;
38935;SDS011;66589;47.458;9.644;2023-06-22T17:08:25;15.55;;;4.93;;
38935;SDS011;66589;47.458;9.644;2023-06-22T17:10:53;13.68;;;4.90;;
38935;SDS011;66589;47.458;9.644;2023-06-22T17:13:19;14.13;;;5.75;;
38935;SDS011;66589;47.458;9.644;2023-06-22T17:15:45;11.75;;;4.97;;
38935;SDS011;66589;47.458;9.644;2023-06-22T17:18:13;12.60;;;4.75;;
38935;SDS011;66589;47.458;9.644;2023-06-22T17:20:40;18.15;;;4.93;;
38935;SDS011;66589;47.458;9.644;2023-06-22T17:23:05;12.18;;;5.55;;
38935;SDS011;66589;47.458;9.644;2023-06-22T17:25:32;14.45;;;5.63;;
38935;SDS011;66589;47.458;9.644;2023-06-22T17:27:59;11.77;;;4.05;;
38935;SDS011;66589;47.458;9.644;2023-06-22T17:30:26;12.48;;;3.88;;
38935;SDS011;66589;47.458;9.644;2023-06-22T17:32:51;13.60;;;3.20;;
38935;SDS011;66589;47.458;9.644;2023-06-22T17:35:17;13.57;;;3.17;;
38935;SDS011;66589;47.458;9.644;2023-06-22T17:37:53;15.30;;;3.22;;
38935;SDS011;66589;47.458;9.644;2023-06-22T17:40:20;9.73;;;2.28;;
38935;SDS011;66589;47.458;9.644;2023-06-22T17:42:48;10.90;;;2.17;;
38935;SDS011;66589;47.458;9.644;2023-06-22T17:45:19;10.50;;;2.30;;
38935;SDS011;66589;47.458;9.644;2023-06-22T17:47:46;12.30;;;2.50;;